N448SD KOKC-KSTL
Flight info
| Callsign | N448SD |
|---|---|
| Flight time | N/A |
| Altitude | 11000 |
| Route | TRUPR3 DRLER SGF KOOOP1 |
| Aircraft | C172/L-VGD/C |
Departure
| Time | 2026-04-27 22:08 |
|---|---|
| Airport | OKC Will Rogers World Airport (KOKC) |
Arrival
| Time | N/A |
|---|---|
| Airport | St. Louis Lambert International Airport (KSTL) |
| Time | Latitude | Longitude | Altitude | Speed | Heading |
|---|---|---|---|---|---|
| 2026-04-27 21:49 | 35.39583 | -97.58577 | 1280 ft | 0 kts | 359° |
| 2026-04-27 21:59 | 35.39586 | -97.58578 | 1280 ft | 1 kts | 341° |
| 2026-04-27 21:59 | 35.39599 | -97.58594 | 1280 ft | 3 kts | 305° |
| 2026-04-27 21:59 | 35.39622 | -97.58611 | 1279 ft | 4 kts | 357° |
| 2026-04-27 21:59 | 35.39671 | -97.58611 | 1279 ft | 8 kts | 353° |
| 2026-04-27 22:00 | 35.39687 | -97.58612 | 1278 ft | 0 kts | 5° |
| 2026-04-27 22:00 | 35.39708 | -97.58612 | 1278 ft | 1 kts | 354° |
| 2026-04-27 22:01 | 35.39717 | -97.58623 | 1278 ft | 4 kts | 297° |
| 2026-04-27 22:01 | 35.39715 | -97.58656 | 1278 ft | 5 kts | 267° |
| 2026-04-27 22:01 | 35.39717 | -97.58719 | 1278 ft | 8 kts | 273° |
| 2026-04-27 22:01 | 35.39720 | -97.58802 | 1280 ft | 10 kts | 268° |
| 2026-04-27 22:02 | 35.39718 | -97.58896 | 1282 ft | 11 kts | 271° |
| 2026-04-27 22:02 | 35.39717 | -97.58997 | 1284 ft | 11 kts | 263° |
| 2026-04-27 22:02 | 35.39677 | -97.59055 | 1285 ft | 9 kts | 200° |
| 2026-04-27 22:02 | 35.39601 | -97.59061 | 1285 ft | 12 kts | 175° |
| 2026-04-27 22:03 | 35.39510 | -97.59061 | 1286 ft | 13 kts | 177° |
| 2026-04-27 22:03 | 35.39411 | -97.59062 | 1286 ft | 14 kts | 181° |
| 2026-04-27 22:03 | 35.39303 | -97.59063 | 1286 ft | 16 kts | 179° |
| 2026-04-27 22:03 | 35.39189 | -97.59061 | 1287 ft | 17 kts | 179° |
| 2026-04-27 22:04 | 35.39066 | -97.59062 | 1287 ft | 16 kts | 184° |
| 2026-04-27 22:04 | 35.39006 | -97.59063 | 1287 ft | 8 kts | 181° |
| 2026-04-27 22:04 | 35.38944 | -97.59063 | 1286 ft | 9 kts | 181° |
| 2026-04-27 22:04 | 35.38869 | -97.59064 | 1284 ft | 11 kts | 179° |
| 2026-04-27 22:05 | 35.38804 | -97.59036 | 1284 ft | 8 kts | 126° |
| 2026-04-27 22:05 | 35.38797 | -97.59015 | 1284 ft | 0 kts | 100° |
| 2026-04-27 22:06 | 35.38797 | -97.59005 | 1284 ft | 5 kts | 94° |
| 2026-04-27 22:06 | 35.38810 | -97.58932 | 1286 ft | 11 kts | 39° |
| 2026-04-27 22:06 | 35.38879 | -97.58896 | 1287 ft | 0 kts | 354° |
| 2026-04-27 22:06 | 35.38942 | -97.58894 | 1288 ft | 32 kts | 359° |
| 2026-04-27 22:07 | 35.39322 | -97.58894 | 1309 ft | 69 kts | 358° |
| 2026-04-27 22:07 | 35.39809 | -97.58881 | 1473 ft | 69 kts | 358° |
| 2026-04-27 22:07 | 35.40302 | -97.58876 | 1643 ft | 69 kts | 355° |
| 2026-04-27 22:07 | 35.40767 | -97.58916 | 1843 ft | 65 kts | 347° |
| 2026-04-27 22:08 | 35.41231 | -97.58954 | 2002 ft | 68 kts | 353° |
| 2026-04-27 22:08 | 35.41693 | -97.58820 | 2182 ft | 70 kts | 12° |
| 2026-04-27 22:08 | 35.42131 | -97.58599 | 2392 ft | 64 kts | 10° |
| 2026-04-27 22:08 | 35.42541 | -97.58366 | 2528 ft | 69 kts | 12° |
| 2026-04-27 22:09 | 35.43015 | -97.58097 | 2638 ft | 78 kts | 14° |
| 2026-04-27 22:09 | 35.43525 | -97.57812 | 2803 ft | 79 kts | 14° |
| 2026-04-27 22:09 | 35.44013 | -97.57523 | 2997 ft | 76 kts | 11° |
| 2026-04-27 22:09 | 35.44469 | -97.57233 | 3174 ft | 73 kts | 12° |
| 2026-04-27 22:10 | 35.44912 | -97.56948 | 3351 ft | 71 kts | 18° |
| 2026-04-27 22:10 | 35.45343 | -97.56661 | 3499 ft | 73 kts | 11° |
| 2026-04-27 22:10 | 35.45806 | -97.56355 | 3629 ft | 77 kts | 13° |
| 2026-04-27 22:10 | 35.46304 | -97.56050 | 3756 ft | 82 kts | 13° |
| 2026-04-27 22:11 | 35.46835 | -97.55724 | 3886 ft | 89 kts | 20° |
| 2026-04-27 22:11 | 35.47201 | -97.55046 | 4013 ft | 104 kts | 70° |
| 2026-04-27 22:11 | 35.47332 | -97.54163 | 4132 ft | 106 kts | 64° |
| 2026-04-27 22:11 | 35.47612 | -97.53310 | 4253 ft | 108 kts | 61° |
| 2026-04-27 22:12 | 35.47905 | -97.52468 | 4395 ft | 109 kts | 62° |
| 2026-04-27 22:12 | 35.48201 | -97.51612 | 4542 ft | 109 kts | 62° |
| 2026-04-27 22:12 | 35.48497 | -97.50750 | 4684 ft | 109 kts | 62° |
| 2026-04-27 22:12 | 35.48792 | -97.49892 | 4827 ft | 109 kts | 63° |
| 2026-04-27 22:13 | 35.49089 | -97.49030 | 4986 ft | 108 kts | 63° |
| 2026-04-27 22:13 | 35.49379 | -97.48186 | 5152 ft | 106 kts | 63° |
| 2026-04-27 22:13 | 35.49668 | -97.47349 | 5317 ft | 105 kts | 63° |
| 2026-04-27 22:13 | 35.49951 | -97.46532 | 5483 ft | 103 kts | 63° |
| 2026-04-27 22:14 | 35.50230 | -97.45725 | 5647 ft | 102 kts | 63° |
| 2026-04-27 22:14 | 35.50504 | -97.44933 | 5809 ft | 101 kts | 63° |
| 2026-04-27 22:14 | 35.50776 | -97.44146 | 5974 ft | 100 kts | 63° |
| 2026-04-27 22:14 | 35.51045 | -97.43366 | 6139 ft | 99 kts | 63° |
| 2026-04-27 22:15 | 35.51311 | -97.42596 | 6304 ft | 97 kts | 64° |
| 2026-04-27 22:15 | 35.51574 | -97.41838 | 6471 ft | 95 kts | 63° |
| 2026-04-27 22:15 | 35.51833 | -97.41091 | 6634 ft | 94 kts | 63° |
| 2026-04-27 22:15 | 35.52084 | -97.40370 | 6795 ft | 91 kts | 63° |
| 2026-04-27 22:16 | 35.52341 | -97.39630 | 6907 ft | 97 kts | 64° |
| 2026-04-27 22:16 | 35.52613 | -97.38831 | 7012 ft | 104 kts | 65° |
| 2026-04-27 22:16 | 35.52898 | -97.37980 | 7118 ft | 110 kts | 66° |
| 2026-04-27 22:16 | 35.53196 | -97.37089 | 7227 ft | 115 kts | 67° |
| 2026-04-27 22:17 | 35.53506 | -97.36159 | 7333 ft | 119 kts | 67° |
| 2026-04-27 22:17 | 35.53827 | -97.35202 | 7441 ft | 122 kts | 66° |
| 2026-04-27 22:17 | 35.54151 | -97.34242 | 7557 ft | 122 kts | 67° |
| 2026-04-27 22:17 | 35.54483 | -97.33266 | 7671 ft | 123 kts | 66° |
| 2026-04-27 22:18 | 35.54813 | -97.32296 | 7792 ft | 123 kts | 67° |
| 2026-04-27 22:18 | 35.55146 | -97.31320 | 7905 ft | 124 kts | 66° |
| 2026-04-27 22:18 | 35.55476 | -97.30355 | 8035 ft | 122 kts | 66° |
| 2026-04-27 22:18 | 35.55802 | -97.29403 | 8168 ft | 121 kts | 66° |
| 2026-04-27 22:19 | 35.56127 | -97.28455 | 8303 ft | 120 kts | 67° |
| 2026-04-27 22:19 | 35.56450 | -97.27512 | 8442 ft | 119 kts | 67° |
| 2026-04-27 22:19 | 35.56772 | -97.26575 | 8611 ft | 118 kts | 66° |
| 2026-04-27 22:19 | 35.57089 | -97.25650 | 8757 ft | 118 kts | 66° |
| 2026-04-27 22:20 | 35.57407 | -97.24721 | 8905 ft | 117 kts | 66° |
| 2026-04-27 22:20 | 35.57717 | -97.23812 | 9043 ft | 116 kts | 66° |
| 2026-04-27 22:20 | 35.58030 | -97.22894 | 9186 ft | 116 kts | 66° |
| 2026-04-27 22:20 | 35.58344 | -97.21980 | 9326 ft | 115 kts | 65° |
| 2026-04-27 22:21 | 35.58658 | -97.21062 | 9453 ft | 117 kts | 66° |
| 2026-04-27 22:21 | 35.58973 | -97.20134 | 9576 ft | 119 kts | 65° |
| 2026-04-27 22:21 | 35.59293 | -97.19186 | 9694 ft | 120 kts | 65° |
| 2026-04-27 22:21 | 35.59613 | -97.18244 | 9818 ft | 122 kts | 66° |
| 2026-04-27 22:22 | 35.59941 | -97.17276 | 9941 ft | 123 kts | 66° |
| 2026-04-27 22:22 | 35.60272 | -97.16300 | 10056 ft | 124 kts | 66° |
| 2026-04-27 22:22 | 35.60606 | -97.15316 | 10178 ft | 125 kts | 68° |
| 2026-04-27 22:22 | 35.60940 | -97.14328 | 10294 ft | 126 kts | 66° |
| 2026-04-27 22:23 | 35.61276 | -97.13335 | 10415 ft | 126 kts | 67° |
| 2026-04-27 22:23 | 35.61613 | -97.12341 | 10532 ft | 127 kts | 65° |
| 2026-04-27 22:23 | 35.61954 | -97.11337 | 10651 ft | 127 kts | 66° |
| 2026-04-27 22:23 | 35.62297 | -97.10326 | 10772 ft | 127 kts | 64° |
| 2026-04-27 22:24 | 35.62635 | -97.09325 | 10891 ft | 128 kts | 64° |
| 2026-04-27 22:24 | 35.62981 | -97.08310 | 10989 ft | 131 kts | 65° |
| 2026-04-27 22:24 | 35.63350 | -97.07219 | 11011 ft | 142 kts | 66° |
| 2026-04-27 22:24 | 35.63740 | -97.06057 | 11006 ft | 152 kts | 67° |
| 2026-04-27 22:25 | 35.64148 | -97.04836 | 11008 ft | 156 kts | 65° |
| 2026-04-27 22:25 | 35.64571 | -97.03603 | 11005 ft | 159 kts | 65° |
| 2026-04-27 22:25 | 35.65005 | -97.02339 | 11007 ft | 160 kts | 65° |
| 2026-04-27 22:25 | 35.65433 | -97.01083 | 11011 ft | 161 kts | 65° |
| 2026-04-27 22:26 | 35.65863 | -96.99809 | 11005 ft | 161 kts | 66° |
| 2026-04-27 22:26 | 35.66296 | -96.98523 | 11004 ft | 162 kts | 66° |
| 2026-04-27 22:26 | 35.66726 | -96.97243 | 11002 ft | 161 kts | 66° |
| 2026-04-27 22:26 | 35.67149 | -96.95982 | 11005 ft | 161 kts | 65° |
| 2026-04-27 22:27 | 35.67579 | -96.94704 | 11003 ft | 161 kts | 64° |
| 2026-04-27 22:27 | 35.68011 | -96.93439 | 11004 ft | 161 kts | 65° |
| 2026-04-27 22:27 | 35.68447 | -96.92164 | 11003 ft | 161 kts | 64° |
| 2026-04-27 22:27 | 35.68881 | -96.90885 | 11005 ft | 161 kts | 65° |
| 2026-04-27 22:28 | 35.69309 | -96.89622 | 11006 ft | 161 kts | 65° |
| 2026-04-27 22:28 | 35.69775 | -96.88357 | 11007 ft | 161 kts | 58° |
| 2026-04-27 22:28 | 35.70320 | -96.87152 | 11007 ft | 161 kts | 56° |
| 2026-04-27 22:28 | 35.70874 | -96.85963 | 11005 ft | 161 kts | 55° |
| 2026-04-27 22:29 | 35.71434 | -96.84763 | 11003 ft | 161 kts | 56° |
| 2026-04-27 22:29 | 35.71991 | -96.83560 | 11001 ft | 161 kts | 56° |
| 2026-04-27 22:29 | 35.72547 | -96.82362 | 11000 ft | 160 kts | 56° |
| 2026-04-27 22:29 | 35.73094 | -96.81180 | 11000 ft | 160 kts | 56° |
| 2026-04-27 22:30 | 35.73647 | -96.79982 | 11004 ft | 160 kts | 56° |
| 2026-04-27 22:30 | 35.74197 | -96.78790 | 11005 ft | 160 kts | 56° |
| 2026-04-27 22:30 | 35.74749 | -96.77598 | 11008 ft | 160 kts | 56° |
| 2026-04-27 22:30 | 35.75301 | -96.76401 | 11006 ft | 161 kts | 56° |
| 2026-04-27 22:31 | 35.75856 | -96.75197 | 11008 ft | 161 kts | 56° |
| 2026-04-27 22:31 | 35.76411 | -96.73993 | 11007 ft | 161 kts | 56° |
| 2026-04-27 22:31 | 35.76956 | -96.72808 | 11008 ft | 161 kts | 56° |
| 2026-04-27 22:31 | 35.77511 | -96.71605 | 11009 ft | 161 kts | 56° |
| 2026-04-27 22:32 | 35.78067 | -96.70396 | 11010 ft | 161 kts | 56° |
| 2026-04-27 22:32 | 35.78615 | -96.69209 | 11007 ft | 162 kts | 56° |
| 2026-04-27 22:32 | 35.79176 | -96.67988 | 11011 ft | 162 kts | 56° |
| 2026-04-27 22:32 | 35.79726 | -96.66791 | 11010 ft | 162 kts | 56° |
| 2026-04-27 22:33 | 35.80285 | -96.65575 | 11011 ft | 162 kts | 56° |
| 2026-04-27 22:33 | 35.80842 | -96.64361 | 11013 ft | 162 kts | 56° |
| 2026-04-27 22:33 | 35.81403 | -96.63139 | 11011 ft | 163 kts | 56° |
| 2026-04-27 22:33 | 35.81962 | -96.61924 | 11016 ft | 163 kts | 57° |
| 2026-04-27 22:34 | 35.82525 | -96.60699 | 11013 ft | 163 kts | 56° |
| 2026-04-27 22:34 | 35.83080 | -96.59486 | 11009 ft | 163 kts | 57° |
| 2026-04-27 22:34 | 35.83640 | -96.58268 | 11008 ft | 163 kts | 57° |
| 2026-04-27 22:34 | 35.84196 | -96.57050 | 11001 ft | 162 kts | 56° |
| 2026-04-27 22:35 | 35.84749 | -96.55844 | 11007 ft | 161 kts | 56° |
| 2026-04-27 22:35 | 35.85304 | -96.54633 | 11007 ft | 162 kts | 56° |
| 2026-04-27 22:35 | 35.85858 | -96.53429 | 11007 ft | 163 kts | 56° |
| 2026-04-27 22:35 | 35.86414 | -96.52210 | 11006 ft | 162 kts | 56° |
| 2026-04-27 22:36 | 35.86968 | -96.51005 | 11012 ft | 163 kts | 57° |
| 2026-04-27 22:36 | 35.87529 | -96.49777 | 11012 ft | 163 kts | 57° |
| 2026-04-27 22:36 | 35.88088 | -96.48553 | 11009 ft | 163 kts | 56° |
| 2026-04-27 22:36 | 35.88647 | -96.47332 | 11006 ft | 163 kts | 56° |
| 2026-04-27 22:37 | 35.89195 | -96.46129 | 11004 ft | 162 kts | 56° |
| 2026-04-27 22:37 | 35.89752 | -96.44912 | 11014 ft | 163 kts | 56° |
| 2026-04-27 22:37 | 35.90314 | -96.43687 | 11012 ft | 164 kts | 57° |
| 2026-04-27 22:37 | 35.90869 | -96.42467 | 11007 ft | 164 kts | 56° |
| 2026-04-27 22:38 | 35.91425 | -96.41248 | 11003 ft | 163 kts | 57° |
| 2026-04-27 22:38 | 35.91983 | -96.40024 | 11002 ft | 163 kts | 57° |
| 2026-04-27 22:38 | 35.92533 | -96.38816 | 11004 ft | 162 kts | 56° |
| 2026-04-27 22:38 | 35.93093 | -96.37592 | 11008 ft | 163 kts | 56° |
| 2026-04-27 22:39 | 35.93647 | -96.36378 | 11009 ft | 163 kts | 56° |
| 2026-04-27 22:39 | 35.94200 | -96.35162 | 11005 ft | 163 kts | 56° |
| 2026-04-27 22:39 | 35.94757 | -96.33939 | 11000 ft | 163 kts | 57° |
| 2026-04-27 22:39 | 35.95314 | -96.32715 | 10997 ft | 162 kts | 57° |
| 2026-04-27 22:40 | 35.95870 | -96.31493 | 11000 ft | 162 kts | 57° |
| 2026-04-27 22:40 | 35.96417 | -96.30293 | 10999 ft | 162 kts | 57° |
| 2026-04-27 22:40 | 35.96971 | -96.29074 | 11000 ft | 162 kts | 57° |
| 2026-04-27 22:40 | 35.97527 | -96.27853 | 10994 ft | 162 kts | 57° |
| 2026-04-27 22:41 | 35.98078 | -96.26639 | 10988 ft | 162 kts | 56° |
| 2026-04-27 22:41 | 35.98624 | -96.25436 | 10980 ft | 160 kts | 57° |
| 2026-04-27 22:41 | 35.99173 | -96.24229 | 10985 ft | 160 kts | 57° |
| 2026-04-27 22:41 | 35.99712 | -96.23045 | 11008 ft | 160 kts | 57° |
| 2026-04-27 22:42 | 36.00263 | -96.21832 | 10993 ft | 161 kts | 57° |
| 2026-04-27 22:42 | 36.00804 | -96.20638 | 11002 ft | 160 kts | 57° |
| 2026-04-27 22:42 | 36.01354 | -96.19426 | 10991 ft | 161 kts | 57° |
| 2026-04-27 22:42 | 36.01899 | -96.18221 | 10997 ft | 161 kts | 57° |
| 2026-04-27 22:43 | 36.02449 | -96.17007 | 10997 ft | 161 kts | 57° |
| 2026-04-27 22:43 | 36.02996 | -96.15801 | 10998 ft | 162 kts | 57° |
| 2026-04-27 22:43 | 36.03548 | -96.14581 | 10997 ft | 162 kts | 56° |
| 2026-04-27 22:43 | 36.04104 | -96.13352 | 10997 ft | 162 kts | 57° |
| 2026-04-27 22:44 | 36.04652 | -96.12144 | 10994 ft | 163 kts | 57° |
| 2026-04-27 22:44 | 36.05205 | -96.10921 | 10996 ft | 163 kts | 57° |
| 2026-04-27 22:44 | 36.05756 | -96.09699 | 10995 ft | 163 kts | 57° |
| 2026-04-27 22:44 | 36.06312 | -96.08469 | 10994 ft | 163 kts | 57° |
| 2026-04-27 22:45 | 36.06863 | -96.07248 | 10994 ft | 162 kts | 57° |
| 2026-04-27 22:45 | 36.07412 | -96.06033 | 10992 ft | 163 kts | 57° |
| 2026-04-27 22:45 | 36.07968 | -96.04801 | 10992 ft | 163 kts | 56° |
| 2026-04-27 22:45 | 36.08522 | -96.03575 | 10993 ft | 163 kts | 57° |
| 2026-04-27 22:46 | 36.09068 | -96.02363 | 10992 ft | 163 kts | 57° |
| 2026-04-27 22:46 | 36.09624 | -96.01130 | 10993 ft | 164 kts | 57° |
| 2026-04-27 22:46 | 36.10185 | -95.99885 | 10992 ft | 164 kts | 56° |
| 2026-04-27 22:46 | 36.10738 | -95.98660 | 10989 ft | 163 kts | 56° |
| 2026-04-27 22:47 | 36.11290 | -95.97433 | 10990 ft | 163 kts | 57° |
| 2026-04-27 22:47 | 36.11847 | -95.96197 | 10990 ft | 163 kts | 57° |
| 2026-04-27 22:47 | 36.12397 | -95.94977 | 10992 ft | 162 kts | 57° |
| 2026-04-27 22:47 | 36.12943 | -95.93763 | 10992 ft | 163 kts | 57° |
| 2026-04-27 22:48 | 36.13497 | -95.92532 | 10992 ft | 163 kts | 57° |
| 2026-04-27 22:48 | 36.14053 | -95.91296 | 10992 ft | 163 kts | 57° |
| 2026-04-27 22:48 | 36.14604 | -95.90068 | 10992 ft | 163 kts | 57° |
| 2026-04-27 22:48 | 36.15150 | -95.88854 | 10994 ft | 163 kts | 56° |
| 2026-04-27 22:49 | 36.15681 | -95.87671 | 10996 ft | 163 kts | 56° |
| 2026-04-27 22:49 | 36.16233 | -95.86440 | 10998 ft | 163 kts | 56° |
| 2026-04-27 22:49 | 36.16768 | -95.85251 | 10998 ft | 163 kts | 56° |
| 2026-04-27 22:49 | 36.17236 | -95.84206 | 10998 ft | 163 kts | 56° |
| 2026-04-27 22:50 | 36.17769 | -95.83020 | 11000 ft | 163 kts | 57° |
| 2026-04-27 22:50 | 36.18316 | -95.81802 | 11000 ft | 163 kts | 57° |
| 2026-04-27 22:50 | 36.18872 | -95.80562 | 11001 ft | 163 kts | 57° |
| 2026-04-27 22:50 | 36.19422 | -95.79333 | 11001 ft | 164 kts | 57° |
| 2026-04-27 22:51 | 36.20002 | -95.78101 | 11002 ft | 163 kts | 54° |
| 2026-04-27 22:51 | 36.20583 | -95.76910 | 11003 ft | 163 kts | 53° |
| 2026-04-27 22:51 | 36.21172 | -95.75710 | 11001 ft | 163 kts | 54° |
| 2026-04-27 22:51 | 36.21767 | -95.74495 | 10999 ft | 163 kts | 54° |
| 2026-04-27 22:52 | 36.22354 | -95.73299 | 11000 ft | 163 kts | 54° |
| 2026-04-27 22:52 | 36.22940 | -95.72102 | 11000 ft | 162 kts | 53° |
| 2026-04-27 22:52 | 36.23529 | -95.70897 | 10999 ft | 162 kts | 53° |
| 2026-04-27 22:52 | 36.24111 | -95.69706 | 11001 ft | 162 kts | 53° |
| 2026-04-27 22:53 | 36.24681 | -95.68542 | 11005 ft | 162 kts | 53° |
| 2026-04-27 22:53 | 36.25240 | -95.67399 | 11005 ft | 163 kts | 54° |
| 2026-04-27 22:53 | 36.25804 | -95.66244 | 11009 ft | 162 kts | 53° |
| 2026-04-27 22:53 | 36.26392 | -95.65039 | 11008 ft | 163 kts | 53° |
| 2026-04-27 22:54 | 36.26985 | -95.63824 | 11006 ft | 163 kts | 54° |
| 2026-04-27 22:54 | 36.27574 | -95.62614 | 11004 ft | 163 kts | 53° |
| 2026-04-27 22:54 | 36.28159 | -95.61414 | 11001 ft | 163 kts | 53° |
| 2026-04-27 22:54 | 36.28721 | -95.60261 | 11000 ft | 164 kts | 54° |
| 2026-04-27 22:55 | 36.29288 | -95.59102 | 11000 ft | 164 kts | 54° |
| 2026-04-27 22:55 | 36.29805 | -95.58040 | 11000 ft | 164 kts | 53° |
| 2026-04-27 22:55 | 36.30403 | -95.56808 | 11001 ft | 164 kts | 53° |
| 2026-04-27 22:55 | 36.30973 | -95.55636 | 11001 ft | 164 kts | 53° |
| 2026-04-27 22:56 | 36.31543 | -95.54467 | 11000 ft | 164 kts | 53° |
| 2026-04-27 22:56 | 36.32101 | -95.53319 | 11001 ft | 164 kts | 53° |
| 2026-04-27 22:56 | 36.32634 | -95.52226 | 11002 ft | 164 kts | 53° |
| 2026-04-27 22:56 | 36.33229 | -95.51001 | 11003 ft | 164 kts | 54° |
| 2026-04-27 22:57 | 36.33831 | -95.49763 | 11005 ft | 164 kts | 53° |
| 2026-04-27 22:57 | 36.34398 | -95.48595 | 11004 ft | 165 kts | 53° |
| 2026-04-27 22:57 | 36.34987 | -95.47383 | 11007 ft | 165 kts | 53° |
| 2026-04-27 22:57 | 36.35582 | -95.46157 | 11007 ft | 165 kts | 54° |
| 2026-04-27 22:58 | 36.36181 | -95.44922 | 11016 ft | 166 kts | 54° |
| 2026-04-27 22:58 | 36.36780 | -95.43686 | 11012 ft | 167 kts | 54° |
| 2026-04-27 22:58 | 36.37384 | -95.42442 | 11008 ft | 166 kts | 54° |
| 2026-04-27 22:58 | 36.37979 | -95.41214 | 10997 ft | 165 kts | 54° |
| 2026-04-27 22:59 | 36.38573 | -95.39985 | 10993 ft | 165 kts | 54° |
| 2026-04-27 22:59 | 36.39158 | -95.38779 | 11010 ft | 165 kts | 53° |
| 2026-04-27 22:59 | 36.39755 | -95.37550 | 11000 ft | 166 kts | 54° |
| 2026-04-27 22:59 | 36.40343 | -95.36331 | 10997 ft | 165 kts | 53° |
| 2026-04-27 23:00 | 36.41530 | -95.33881 | 10999 ft | 166 kts | 55° |
| 2026-04-27 23:00 | 36.42130 | -95.32636 | 10999 ft | 166 kts | 55° |
| 2026-04-27 23:00 | 36.42701 | -95.31454 | 10990 ft | 165 kts | 55° |
| 2026-04-27 23:01 | 36.43297 | -95.30221 | 10986 ft | 164 kts | 54° |
| 2026-04-27 23:01 | 36.43882 | -95.29010 | 10989 ft | 163 kts | 55° |
| 2026-04-27 23:01 | 36.44472 | -95.27788 | 10996 ft | 163 kts | 54° |
| 2026-04-27 23:01 | 36.45057 | -95.26579 | 10993 ft | 163 kts | 55° |
| 2026-04-27 23:02 | 36.45635 | -95.25381 | 10994 ft | 163 kts | 54° |
| 2026-04-27 23:02 | 36.46220 | -95.24169 | 10989 ft | 163 kts | 55° |
| 2026-04-27 23:02 | 36.46801 | -95.22966 | 10995 ft | 162 kts | 55° |
| 2026-04-27 23:02 | 36.47385 | -95.21754 | 11002 ft | 163 kts | 54° |
| 2026-04-27 23:03 | 36.47964 | -95.20551 | 11009 ft | 164 kts | 54° |
| 2026-04-27 23:03 | 36.48551 | -95.19334 | 11008 ft | 165 kts | 55° |
| 2026-04-27 23:03 | 36.49141 | -95.18111 | 11001 ft | 164 kts | 55° |
| 2026-04-27 23:03 | 36.49731 | -95.16882 | 11002 ft | 164 kts | 55° |
| 2026-04-27 23:04 | 36.50314 | -95.15671 | 10997 ft | 164 kts | 55° |
| 2026-04-27 23:04 | 36.50879 | -95.14492 | 11002 ft | 164 kts | 55° |
| 2026-04-27 23:04 | 36.51464 | -95.13277 | 11008 ft | 164 kts | 54° |
| 2026-04-27 23:04 | 36.52052 | -95.12053 | 11004 ft | 164 kts | 55° |
| 2026-04-27 23:05 | 36.52646 | -95.10816 | 10999 ft | 164 kts | 55° |
| 2026-04-27 23:05 | 36.53233 | -95.09592 | 10997 ft | 164 kts | 54° |
| 2026-04-27 23:05 | 36.53814 | -95.08382 | 10990 ft | 164 kts | 55° |
| 2026-04-27 23:05 | 36.54402 | -95.07160 | 10994 ft | 164 kts | 55° |
| 2026-04-27 23:06 | 36.54987 | -95.05939 | 10994 ft | 164 kts | 55° |
| 2026-04-27 23:06 | 36.55566 | -95.04730 | 10992 ft | 164 kts | 55° |
| 2026-04-27 23:06 | 36.56156 | -95.03503 | 10993 ft | 164 kts | 55° |
| 2026-04-27 23:06 | 36.56735 | -95.02293 | 10994 ft | 164 kts | 55° |
| 2026-04-27 23:07 | 36.57325 | -95.01060 | 10997 ft | 164 kts | 55° |
| 2026-04-27 23:07 | 36.57909 | -94.99841 | 10994 ft | 164 kts | 55° |
| 2026-04-27 23:07 | 36.58496 | -94.98614 | 10987 ft | 164 kts | 54° |
| 2026-04-27 23:07 | 36.59087 | -94.97390 | 10985 ft | 164 kts | 54° |
| 2026-04-27 23:08 | 36.59671 | -94.96178 | 10978 ft | 163 kts | 55° |
| 2026-04-27 23:08 | 36.60247 | -94.94978 | 11000 ft | 163 kts | 54° |
| 2026-04-27 23:08 | 36.60840 | -94.93739 | 10995 ft | 163 kts | 54° |
| 2026-04-27 23:08 | 36.61403 | -94.92561 | 10998 ft | 164 kts | 54° |
| 2026-04-27 23:09 | 36.61923 | -94.91473 | 10990 ft | 164 kts | 55° |
| 2026-04-27 23:09 | 36.62509 | -94.90248 | 11001 ft | 164 kts | 54° |
| 2026-04-27 23:09 | 36.63091 | -94.89027 | 10993 ft | 164 kts | 54° |
| 2026-04-27 23:09 | 36.63656 | -94.87845 | 10994 ft | 163 kts | 54° |
| 2026-04-27 23:10 | 36.64213 | -94.86678 | 10987 ft | 163 kts | 53° |
| 2026-04-27 23:10 | 36.64790 | -94.85464 | 11004 ft | 163 kts | 54° |
| 2026-04-27 23:10 | 36.65369 | -94.84255 | 10994 ft | 164 kts | 54° |
| 2026-04-27 23:10 | 36.65955 | -94.83025 | 10989 ft | 163 kts | 54° |
| 2026-04-27 23:11 | 36.66535 | -94.81807 | 11000 ft | 163 kts | 54° |
| 2026-04-27 23:11 | 36.67114 | -94.80592 | 10991 ft | 164 kts | 54° |
| 2026-04-27 23:11 | 36.67696 | -94.79367 | 11002 ft | 163 kts | 54° |
| 2026-04-27 23:11 | 36.68256 | -94.78189 | 11012 ft | 164 kts | 54° |
| 2026-04-27 23:12 | 36.68792 | -94.77064 | 11006 ft | 164 kts | 54° |
| 2026-04-27 23:12 | 36.69376 | -94.75835 | 11009 ft | 164 kts | 54° |
| 2026-04-27 23:12 | 36.69972 | -94.74579 | 11009 ft | 165 kts | 54° |
| 2026-04-27 23:12 | 36.70540 | -94.73385 | 11016 ft | 165 kts | 55° |
| 2026-04-27 23:13 | 36.71130 | -94.72142 | 11019 ft | 166 kts | 54° |
| 2026-04-27 23:13 | 36.71714 | -94.70906 | 11009 ft | 166 kts | 54° |
| 2026-04-27 23:13 | 36.72314 | -94.69643 | 11019 ft | 166 kts | 54° |
| 2026-04-27 23:13 | 36.72874 | -94.68462 | 11021 ft | 166 kts | 54° |
| 2026-04-27 23:14 | 36.73463 | -94.67215 | 11028 ft | 167 kts | 54° |
| 2026-04-27 23:14 | 36.74043 | -94.65995 | 11024 ft | 167 kts | 54° |
| 2026-04-27 23:14 | 36.74631 | -94.64751 | 11011 ft | 167 kts | 54° |
| 2026-04-27 23:14 | 36.75232 | -94.63484 | 11015 ft | 166 kts | 54° |
| 2026-04-27 23:15 | 36.75735 | -94.62424 | 11016 ft | 166 kts | 54° |
| 2026-04-27 23:15 | 36.76334 | -94.61160 | 11016 ft | 166 kts | 55° |
| 2026-04-27 23:15 | 36.76927 | -94.59907 | 11020 ft | 166 kts | 54° |
| 2026-04-27 23:15 | 36.77447 | -94.58807 | 11016 ft | 167 kts | 54° |
| 2026-04-27 23:16 | 36.78020 | -94.57595 | 11020 ft | 166 kts | 54° |
| 2026-04-27 23:16 | 36.78610 | -94.56345 | 11024 ft | 166 kts | 54° |
| 2026-04-27 23:16 | 36.79181 | -94.55139 | 11024 ft | 166 kts | 54° |
| 2026-04-27 23:16 | 36.79739 | -94.53951 | 11019 ft | 166 kts | 54° |
| 2026-04-27 23:17 | 36.80329 | -94.52703 | 11024 ft | 166 kts | 55° |
| 2026-04-27 23:17 | 36.80919 | -94.51455 | 11023 ft | 167 kts | 55° |
| 2026-04-27 23:17 | 36.81511 | -94.50198 | 11026 ft | 167 kts | 54° |
| 2026-04-27 23:17 | 36.82099 | -94.48949 | 11016 ft | 167 kts | 54° |
| 2026-04-27 23:18 | 36.82692 | -94.47691 | 11016 ft | 167 kts | 54° |
| 2026-04-27 23:18 | 36.83276 | -94.46454 | 11018 ft | 166 kts | 55° |
| 2026-04-27 23:18 | 36.83866 | -94.45200 | 11024 ft | 166 kts | 54° |
| 2026-04-27 23:18 | 36.84430 | -94.44002 | 11028 ft | 167 kts | 54° |
| 2026-04-27 23:19 | 36.85019 | -94.42753 | 11022 ft | 167 kts | 54° |
| 2026-04-27 23:19 | 36.85610 | -94.41499 | 11024 ft | 167 kts | 54° |
| 2026-04-27 23:19 | 36.86201 | -94.40242 | 11022 ft | 166 kts | 55° |
| 2026-04-27 23:19 | 36.86782 | -94.39006 | 11020 ft | 166 kts | 55° |
| 2026-04-27 23:20 | 36.87373 | -94.37746 | 11024 ft | 166 kts | 56° |
| 2026-04-27 23:20 | 36.87960 | -94.36499 | 11026 ft | 167 kts | 55° |
| 2026-04-27 23:20 | 36.88546 | -94.35248 | 11025 ft | 167 kts | 54° |
| 2026-04-27 23:20 | 36.89131 | -94.34004 | 11020 ft | 167 kts | 56° |
| 2026-04-27 23:21 | 36.89657 | -94.32883 | 11020 ft | 167 kts | 55° |
| 2026-04-27 23:21 | 36.90244 | -94.31632 | 11017 ft | 166 kts | 55° |
| 2026-04-27 23:21 | 36.90765 | -94.30520 | 11017 ft | 166 kts | 55° |
| 2026-04-27 23:21 | 36.91356 | -94.29262 | 11012 ft | 166 kts | 56° |
| 2026-04-27 23:22 | 36.91935 | -94.28024 | 11011 ft | 166 kts | 56° |
| 2026-04-27 23:22 | 36.92463 | -94.26897 | 11010 ft | 166 kts | 55° |
| 2026-04-27 23:22 | 36.93036 | -94.25674 | 11012 ft | 166 kts | 55° |
| 2026-04-27 23:22 | 36.93596 | -94.24479 | 11005 ft | 166 kts | 55° |
| 2026-04-27 23:23 | 36.94178 | -94.23233 | 11003 ft | 166 kts | 54° |
| 2026-04-27 23:23 | 36.94762 | -94.21987 | 11008 ft | 165 kts | 55° |
| 2026-04-27 23:23 | 36.95324 | -94.20783 | 11014 ft | 165 kts | 55° |
| 2026-04-27 23:23 | 36.95903 | -94.19546 | 11019 ft | 165 kts | 55° |
| 2026-04-27 23:24 | 36.96458 | -94.18361 | 11021 ft | 165 kts | 54° |
| 2026-04-27 23:24 | 36.97045 | -94.17106 | 11019 ft | 166 kts | 56° |
| 2026-04-27 23:24 | 36.97632 | -94.15848 | 11026 ft | 167 kts | 55° |
| 2026-04-27 23:24 | 36.98216 | -94.14597 | 11023 ft | 167 kts | 55° |
| 2026-04-27 23:25 | 36.98804 | -94.13333 | 11013 ft | 167 kts | 53° |
| 2026-04-27 23:25 | 36.99387 | -94.12084 | 11014 ft | 167 kts | 55° |
| 2026-04-27 23:25 | 36.99974 | -94.10827 | 11029 ft | 167 kts | 55° |
| 2026-04-27 23:25 | 37.00554 | -94.09583 | 11028 ft | 168 kts | 56° |
| 2026-04-27 23:26 | 37.01148 | -94.08313 | 11028 ft | 167 kts | 56° |
| 2026-04-27 23:26 | 37.01730 | -94.07053 | 11048 ft | 168 kts | 53° |
| 2026-04-27 23:26 | 37.02327 | -94.05774 | 11034 ft | 168 kts | 53° |
| 2026-04-27 23:26 | 37.02908 | -94.04519 | 11018 ft | 168 kts | 56° |
| 2026-04-27 23:27 | 37.03497 | -94.03253 | 11017 ft | 166 kts | 56° |
| 2026-04-27 23:27 | 37.04055 | -94.02055 | 11020 ft | 166 kts | 55° |
| 2026-04-27 23:27 | 37.04612 | -94.00855 | 11023 ft | 166 kts | 54° |
| 2026-04-27 23:27 | 37.05023 | -93.99973 | 11020 ft | 166 kts | 55° |
| 2026-04-27 23:28 | 37.05583 | -93.98770 | 11016 ft | 166 kts | 55° |
| 2026-04-27 23:28 | 37.06149 | -93.97553 | 11021 ft | 165 kts | 56° |
| 2026-04-27 23:28 | 37.06689 | -93.96388 | 11023 ft | 166 kts | 54° |
| 2026-04-27 23:28 | 37.07268 | -93.95140 | 11029 ft | 166 kts | 56° |
| 2026-04-27 23:29 | 37.07790 | -93.94015 | 11026 ft | 167 kts | 55° |
| 2026-04-27 23:29 | 37.08355 | -93.92796 | 11028 ft | 167 kts | 55° |
| 2026-04-27 23:29 | 37.08940 | -93.91534 | 11022 ft | 167 kts | 56° |
| 2026-04-27 23:29 | 37.09523 | -93.90271 | 11020 ft | 167 kts | 56° |
| 2026-04-27 23:30 | 37.10083 | -93.89062 | 11028 ft | 167 kts | 55° |
| 2026-04-27 23:30 | 37.10634 | -93.87875 | 11023 ft | 166 kts | 55° |
| 2026-04-27 23:30 | 37.11215 | -93.86620 | 11024 ft | 166 kts | 56° |
| 2026-04-27 23:30 | 37.11771 | -93.85419 | 11023 ft | 166 kts | 56° |
| 2026-04-27 23:31 | 37.12348 | -93.84171 | 11021 ft | 166 kts | 56° |
| 2026-04-27 23:31 | 37.12929 | -93.82915 | 11023 ft | 166 kts | 56° |
| 2026-04-27 23:31 | 37.13501 | -93.81674 | 11021 ft | 166 kts | 56° |
| 2026-04-27 23:31 | 37.14081 | -93.80415 | 11022 ft | 166 kts | 56° |
| 2026-04-27 23:32 | 37.14660 | -93.79164 | 11019 ft | 166 kts | 55° |
| 2026-04-27 23:32 | 37.15239 | -93.77913 | 11016 ft | 165 kts | 55° |
| 2026-04-27 23:32 | 37.15776 | -93.76748 | 11016 ft | 165 kts | 56° |
| 2026-04-27 23:32 | 37.16357 | -93.75488 | 11021 ft | 165 kts | 56° |
| 2026-04-27 23:33 | 37.16929 | -93.74249 | 11023 ft | 166 kts | 56° |
| 2026-04-27 23:33 | 37.17508 | -93.72990 | 11019 ft | 167 kts | 56° |
| 2026-04-27 23:33 | 37.18094 | -93.71719 | 11011 ft | 167 kts | 57° |
| 2026-04-27 23:33 | 37.18677 | -93.70451 | 11015 ft | 167 kts | 56° |
| 2026-04-27 23:34 | 37.19264 | -93.69177 | 11006 ft | 167 kts | 56° |
| 2026-04-27 23:34 | 37.19845 | -93.67911 | 11012 ft | 167 kts | 56° |
| 2026-04-27 23:34 | 37.20431 | -93.66640 | 11016 ft | 167 kts | 56° |
| 2026-04-27 23:34 | 37.21017 | -93.65363 | 11020 ft | 168 kts | 56° |
| 2026-04-27 23:35 | 37.21619 | -93.64055 | 11014 ft | 169 kts | 56° |
| 2026-04-27 23:35 | 37.22169 | -93.62857 | 11004 ft | 168 kts | 57° |
| 2026-04-27 23:35 | 37.22757 | -93.61578 | 11005 ft | 167 kts | 56° |